Time;durP1;ratioP1;P1;durP2;ratioP2;P2;SDS_P1;SDS_P2;PMS_P1;PMS_P2;Temp;Humidity;BMP_temperature;BMP_pressure;BME280_temperature;BME280_humidity;BME280_pressure;Samples;Min_cycle;Max_cycle;Signal;HPM_P1;HPM_P2
2022/10/20 06:40:33;;;;;;;8.95;3.45;;;15.80;70.30;;;;;;4716421;30;20124;-73
2022/10/20 06:42:58;;;;;;;20.83;3.67;;;15.80;70.30;;;;;;4719053;30;20481;-74
2022/10/20 06:45:24;;;;;;;11.23;3.40;;;15.80;70.00;;;;;;4719354;30;20053;-81
2022/10/20 06:47:50;;;;;;;13.55;4.00;;;15.80;69.90;;;;;;4719528;30;20060;-76
2022/10/20 06:50:15;;;;;;;9.45;3.75;;;15.80;70.00;;;;;;4719314;30;20060;-74
2022/10/20 06:52:41;;;;;;;10.02;4.45;;;15.90;69.80;;;;;;4717814;30;20119;-76
2022/10/20 06:55:07;;;;;;;14.50;4.03;;;15.80;69.20;;;;;;4718782;30;20142;-77
2022/10/20 06:57:33;;;;;;;9.65;4.10;;;15.90;68.40;;;;;;4719322;30;20045;-79
2022/10/20 06:59:58;;;;;;;17.75;4.45;;;15.90;68.00;;;;;;4719343;30;20053;-78
2022/10/20 07:02:24;;;;;;;11.07;3.90;;;15.80;68.00;;;;;;4719085;30;20477;-79
2022/10/20 07:04:50;;;;;;;12.50;3.35;;;15.80;68.00;;;;;;4719060;30;20140;-76
2022/10/20 07:07:16;;;;;;;9.90;3.58;;;15.70;68.10;;;;;;4718930;30;20387;-78
2022/10/20 07:09:41;;;;;;;11.52;2.60;;;15.70;68.30;;;;;;4719324;30;20064;-78
2022/10/20 07:12:07;;;;;;;9.60;3.53;;;15.70;68.50;;;;;;4720941;30;20060;-78
2022/10/20 07:14:36;;;;;;;14.23;3.75;;;15.70;68.70;;;;;;4722062;30;20061;-79
2022/10/20 07:17:02;;;;;;;8.90;3.35;;;15.70;68.90;;;;;;4722359;30;20057;-82
2022/10/20 07:19:28;;;;;;;6.30;2.58;;;15.70;69.10;;;;;;4720684;30;20164;-81
2022/10/20 07:21:54;;;;;;;7.85;2.55;;;15.70;69.30;;;;;;4718904;30;20537;-81
2022/10/20 07:24:20;;;;;;;18.55;3.40;;;15.70;69.50;;;;;;4704545;30;20140;-81
2022/10/20 07:26:46;;;;;;;20.30;4.63;;;15.60;69.60;;;;;;4721410;30;20053;-81
2022/10/20 07:29:13;;;;;;;13.93;5.80;;;15.60;69.50;;;;;;4722314;30;20068;-81
2022/10/20 07:31:44;;;;;;;11.90;4.65;;;15.70;68.30;;;;;;4722243;30;20067;-79
2022/10/20 07:34:12;;;;;;;10.15;5.20;;;15.70;66.90;;;;;;4720501;30;20072;-79
2022/10/20 07:36:40;;;;;;;8.13;3.85;;;15.70;66.50;;;;;;4720888;30;20061;-80
2022/10/20 07:39:06;;;;;;;8.40;4.15;;;15.70;66.80;;;;;;4721370;30;20100;-80
2022/10/20 07:41:35;;;;;;;14.93;4.85;;;15.70;67.10;;;;;;4706784;30;20104;-80
2022/10/20 07:44:01;;;;;;;10.82;3.78;;;15.70;67.50;;;;;;4721902;30;20057;-81
2022/10/20 07:46:27;;;;;;;13.02;4.22;;;15.70;67.80;;;;;;4721797;30;20103;-78
2022/10/20 07:48:52;;;;;;;13.15;4.57;;;15.70;68.20;;;;;;4720074;30;20064;-80
2022/10/20 07:51:21;;;;;;;13.25;3.83;;;15.60;68.20;;;;;;4719746;30;20061;-80
2022/10/20 07:53:47;;;;;;;11.30;3.42;;;15.70;68.50;;;;;;4721210;30;20128;-81
2022/10/20 07:56:14;;;;;;;12.82;3.40;;;15.70;68.70;;;;;;4704134;30;20064;-80
2022/10/20 07:58:41;;;;;;;13.77;3.25;;;15.60;68.70;;;;;;4720361;30;20076;-79
2022/10/20 08:01:07;;;;;;;14.65;3.60;;;15.60;68.60;;;;;;4720328;30;20057;-78
2022/10/20 08:03:33;;;;;;;23.80;3.85;;;15.60;69.00;;;;;;4720753;30;20057;-80
2022/10/20 08:05:59;;;;;;;19.52;4.38;;;15.60;69.00;;;;;;4720813;30;20104;-79
2022/10/20 08:08:25;;;;;;;16.83;4.38;;;15.60;68.80;;;;;;4721484;30;20060;-79
2022/10/20 08:10:50;;;;;;;13.75;3.33;;;15.60;68.70;;;;;;4720119;30;20052;-77
2022/10/20 08:13:16;;;;;;;14.30;3.47;;;15.60;68.90;;;;;;4720257;30;20049;-79
2022/10/20 08:15:42;;;;;;;11.40;3.65;;;15.60;69.00;;;;;;4720983;30;20072;-77
2022/10/20 08:18:08;;;;;;;19.38;3.65;;;15.60;69.40;;;;;;4721188;30;20049;-77
2022/10/20 08:20:33;;;;;;;17.67;4.30;;;15.60;69.40;;;;;;4721130;30;20446;-78
2022/10/20 08:22:59;;;;;;;26.63;4.00;;;15.60;69.40;;;;;;4719440;30;20067;-78
2022/10/20 08:25:25;;;;;;;13.98;3.47;;;15.60;69.50;;;;;;4719809;30;20053;-76
2022/10/20 08:27:51;;;;;;;21.40;4.63;;;15.60;69.40;;;;;;4721149;30;20388;-78
2022/10/20 08:30:17;;;;;;;11.95;3.72;;;15.60;69.00;;;;;;4720954;30;20056;-77
2022/10/20 08:32:43;;;;;;;13.63;3.45;;;15.50;68.70;;;;;;4721178;30;20049;-77
2022/10/20 08:35:09;;;;;;;16.67;3.97;;;15.50;69.00;;;;;;4720357;30;20430;-76
2022/10/20 08:37:35;;;;;;;11.50;3.53;;;15.50;68.90;;;;;;4721580;30;20122;-77
2022/10/20 08:40:04;;;;;;;15.00;3.67;;;15.40;69.30;;;;;;4720780;30;20071;-78
2022/10/20 08:42:38;;;;;;;19.10;3.83;;;15.40;69.50;;;;;;4720997;30;20499;-77
2022/10/20 08:45:05;;;;;;;12.10;2.97;;;15.40;69.70;;;;;;4720669;30;20457;-76
2022/10/20 08:47:35;;;;;;;12.70;5.05;;;15.40;69.90;;;;;;4720690;30;20052;-79
2022/10/20 08:50:08;;;;;;;13.73;6.40;;;15.50;68.30;;;;;;4720649;30;20095;-73
2022/10/20 08:52:34;;;;;;;9.98;6.43;;;15.40;64.40;;;;;;4720839;30;20061;-77
2022/10/20 08:55:03;;;;;;;9.35;7.00;;;15.30;63.40;;;;;;4719972;30;20057;-76
2022/10/20 08:57:30;;;;;;;10.63;5.78;;;15.20;63.00;;;;;;4720562;30;20121;-80
2022/10/20 09:00:19;;;;;;;11.45;6.55;;;15.10;63.30;;;;;;4720930;30;20159;-80
2022/10/20 09:02:46;;;;;;;10.25;5.75;;;15.00;64.50;;;;;;4719299;30;20060;-78
2022/10/20 09:05:14;;;;;;;18.13;5.10;;;15.00;65.50;;;;;;4720476;30;20060;-79
2022/10/20 09:07:40;;;;;;;11.55;4.18;;;15.10;65.70;;;;;;4717660;30;20095;-80
2022/10/20 09:10:15;;;;;;;12.82;4.20;;;15.20;66.10;;;;;;4719146;30;20061;-78
2022/10/20 09:12:43;;;;;;;14.75;3.47;;;15.40;66.50;;;;;;4720031;30;20067;-78
2022/10/20 09:15:10;;;;;;;18.98;3.90;;;15.50;66.70;;;;;;4704963;30;20060;-77
2022/10/20 09:17:39;;;;;;;21.02;3.50;;;15.60;66.90;;;;;;4719769;30;20465;-80
2022/10/20 09:20:10;;;;;;;26.38;4.32;;;15.70;67.10;;;;;;4720384;30;20057;-77
2022/10/20 09:22:36;;;;;;;22.70;4.35;;;15.80;67.30;;;;;;4719779;30;20071;-78
2022/10/20 09:25:03;;;;;;;16.20;3.60;;;15.90;67.60;;;;;;4720171;30;20057;-79
2022/10/20 09:27:36;;;;;;;20.38;3.22;;;16.00;67.60;;;;;;4720001;30;20358;-79
2022/10/20 09:30:24;;;;;;;20.63;3.65;;;16.00;67.70;;;;;;4719064;30;20457;-77
2022/10/20 09:32:52;;;;;;;11.07;3.00;;;16.10;67.80;;;;;;4718327;30;20044;-76
2022/10/20 09:35:19;;;;;;;12.50;3.03;;;16.10;68.00;;;;;;4718518;30;20331;-77
2022/10/20 09:38:03;;;;;;;20.30;4.13;;;16.10;68.20;;;;;;4719920;30;20049;-83
2022/10/20 09:40:44;;;;;;;20.75;3.83;;;16.20;68.60;;;;;;4719733;30;20378;-78
2022/10/20 09:43:16;;;;;;;25.63;3.58;;;16.20;68.80;;;;;;4718658;30;20065;-77
2022/10/20 09:45:59;;;;;;;17.98;4.45;;;16.20;69.00;;;;;;4719752;30;20064;-79
2022/10/20 09:48:28;;;;;;;14.88;3.90;;;16.30;69.40;;;;;;4719403;30;20053;-74
2022/10/20 09:50:57;;;;;;;15.75;4.22;;;16.30;69.00;;;;;;4719872;30;20415;-79
2022/10/20 09:53:28;;;;;;;19.70;3.65;;;16.40;68.50;;;;;;4718530;30;20048;-78
2022/10/20 09:55:55;;;;;;;14.90;3.83;;;16.60;68.00;;;;;;4719150;30;20361;-76
2022/10/20 09:58:30;;;;;;;11.20;3.63;;;16.70;67.70;;;;;;4719252;30;20060;-72
2022/10/20 10:01:10;;;;;;;18.73;4.70;;;16.80;66.90;;;;;;4719376;30;20122;-77
2022/10/20 10:03:45;;;;;;;18.85;4.82;;;16.90;66.60;;;;;;4718415;30;20045;-77
2022/10/20 10:06:37;;;;;;;21.35;4.85;;;16.90;66.20;;;;;;4719276;30;20053;-79
2022/10/20 10:09:23;;;;;;;26.10;4.35;;;16.90;66.00;;;;;;4718710;30;20057;-78
2022/10/20 10:12:01;;;;;;;16.48;4.32;;;16.80;65.70;;;;;;4719789;30;20055;-78
2022/10/20 10:14:28;;;;;;;13.43;3.95;;;16.90;66.20;;;;;;4718953;30;20128;-76
2022/10/20 10:16:54;;;;;;;16.25;3.97;;;16.90;66.40;;;;;;4719131;30;20389;-77
2022/10/20 10:19:29;;;;;;;19.73;4.63;;;16.90;66.30;;;;;;4719101;30;20139;-78
2022/10/20 10:22:03;;;;;;;12.15;4.32;;;16.90;66.00;;;;;;4718614;30;20385;-76
2022/10/20 10:24:42;;;;;;;14.27;4.75;;;16.90;66.00;;;;;;4719589;30;20144;-75
2022/10/20 10:27:37;;;;;;;7.70;3.22;;;16.80;66.10;;;;;;4719342;30;20075;-78
2022/10/20 10:30:27;;;;;;;16.85;3.97;;;16.80;66.50;;;;;;4700145;30;20069;-79
2022/10/20 10:32:54;;;;;;;14.38;3.92;;;16.70;67.00;;;;;;4719096;30;20061;-78
2022/10/20 10:35:28;;;;;;;11.13;3.90;;;16.80;67.40;;;;;;4719374;30;20403;-76
2022/10/20 10:37:55;;;;;;;13.77;3.85;;;16.70;67.90;;;;;;4719177;30;20052;-77
2022/10/20 10:40:44;;;;;;;11.80;3.40;;;16.70;68.20;;;;;;4718993;30;20104;-78
2022/10/20 10:43:32;;;;;;;7.55;3.85;;;16.70;68.20;;;;;;4700346;30;20144;-78
2022/10/20 10:46:06;;;;;;;11.00;4.50;;;16.60;67.70;;;;;;4721278;30;20049;-78
2022/10/20 10:48:35;;;;;;;12.27;4.80;;;16.70;67.40;;;;;;4723052;30;20053;-83
2022/10/20 10:51:11;;;;;;;9.93;5.25;;;16.60;67.00;;;;;;4722065;30;20080;-79
2022/10/20 10:54:19;;;;;;;9.75;4.88;;;16.60;67.20;;;;;;4722614;30;20053;-78
2022/10/20 10:56:52;;;;;;;11.18;4.20;;;16.60;66.40;;;;;;4717576;30;20547;-78
2022/10/20 10:59:23;;;;;;;;;;;16.50;66.20;;;;;;4723047;30;20077;-78
2022/10/20 11:02:22;;;;;;;18.63;4.95;;;16.50;65.90;;;;;;4722343;30;19926;-77
2022/10/20 11:05:10;;;;;;;23.23;5.43;;;16.50;66.10;;;;;;4722153;30;20061;-78
2022/10/20 11:07:56;;;;;;;17.33;4.93;;;16.50;66.20;;;;;;4706642;30;20053;-80
2022/10/20 11:10:33;;;;;;;21.20;4.78;;;16.50;66.50;;;;;;4722553;30;20450;-80
2022/10/20 11:13:13;;;;;;;8.40;3.90;;;16.40;66.60;;;;;;4722660;30;20130;-82
2022/10/20 11:16:02;;;;;;;15.75;3.85;;;16.40;66.80;;;;;;4722360;30;20385;-81
2022/10/20 11:18:55;;;;;;;11.10;3.60;;;16.40;66.90;;;;;;4722476;30;20435;-81
2022/10/20 11:21:50;;;;;;;10.27;3.30;;;16.40;67.20;;;;;;4706493;30;20111;-79
2022/10/20 11:24:42;;;;;;;7.25;3.08;;;16.40;67.20;;;;;;4714021;30;20057;-80
2022/10/20 11:27:26;;;;;;;6.18;3.35;;;16.30;67.40;;;;;;4706704;30;20092;-81
2022/10/20 11:29:56;;;;;;;;;;;16.30;67.50;;;;;;4722292;30;20057;-80
2022/10/20 11:32:30;;;;;;;7.75;3.08;;;16.30;67.40;;;;;;4721676;30;19961;-81
2022/10/20 11:35:00;;;;;;;7.88;3.70;;;16.30;67.80;;;;;;4722142;30;20107;-81
2022/10/20 11:37:57;;;;;;;8.40;2.95;;;16.30;67.90;;;;;;4721962;30;20049;-81
2022/10/20 11:40:28;;;;;;;6.15;2.92;;;16.30;68.00;;;;;;4717898;30;20101;-81
2022/10/20 11:43:38;;;;;;;7.72;3.65;;;16.20;68.10;;;;;;4722609;30;20406;-80
2022/10/20 11:46:12;;;;;;;6.22;2.50;;;16.20;68.10;;;;;;4705333;30;20068;-82
2022/10/20 11:48:47;;;;;;;6.75;3.53;;;16.20;68.40;;;;;;4722075;30;20136;-80
2022/10/20 11:51:28;;;;;;;5.32;2.85;;;16.20;68.60;;;;;;4721605;30;20057;-80
2022/10/20 11:54:15;;;;;;;6.07;2.58;;;16.20;68.60;;;;;;4721571;30;20099;-80
2022/10/20 11:57:17;;;;;;;5.68;2.83;;;16.20;68.70;;;;;;4719964;30;20152;-81
2022/10/20 11:59:51;;;;;;;7.03;2.70;;;16.20;68.80;;;;;;4706524;30;20057;-80
2022/10/20 12:02:58;;;;;;;8.20;3.20;;;16.20;69.10;;;;;;4720638;30;20061;-79
2022/10/20 12:05:46;;;;;;;5.50;2.13;;;16.20;68.80;;;;;;4720928;30;20496;-79
2022/10/20 12:08:20;;;;;;;4.03;2.30;;;16.20;69.00;;;;;;4721630;30;20053;-79
2022/10/20 12:10:57;;;;;;;7.10;2.78;;;16.20;69.30;;;;;;4706332;30;20466;-81
2022/10/20 12:14:08;;;;;;;5.00;2.50;;;16.20;69.20;;;;;;4721002;30;20485;-79
2022/10/20 12:16:52;;;;;;;6.68;2.85;;;16.20;69.20;;;;;;4713506;30;20069;-82
2022/10/20 12:19:22;;;;;;;;;;;16.20;69.30;;;;;;4706060;30;20119;-81
2022/10/20 12:22:03;;;;;;;5.38;2.42;;;16.20;69.20;;;;;;4720421;30;19941;-80
2022/10/20 12:24:53;;;;;;;4.88;2.72;;;16.20;69.60;;;;;;4705814;30;20065;-80
2022/10/20 12:27:22;;;;;;;4.82;2.17;;;16.20;69.70;;;;;;4705565;30;20092;-74
2022/10/20 12:30:17;;;;;;;8.00;3.42;;;16.20;69.40;;;;;;4720383;30;20354;-80
2022/10/20 12:33:07;;;;;;;4.30;2.63;;;16.20;69.40;;;;;;4712182;30;20061;-78
2022/10/20 12:36:11;;;;;;;5.45;2.60;;;16.20;69.50;;;;;;4720392;30;20065;-75
2022/10/20 12:38:37;;;;;;;3.65;2.50;;;16.20;69.40;;;;;;4720330;30;20063;-80
2022/10/20 12:41:03;;;;;;;9.18;3.75;;;16.20;69.30;;;;;;4721324;30;20478;-78
2022/10/20 12:43:48;;;;;;;4.65;3.35;;;16.20;69.20;;;;;;4721085;30;20057;-76
2022/10/20 12:46:26;;;;;;;9.70;4.00;;;16.20;69.10;;;;;;4720981;30;20111;-77
2022/10/20 12:48:58;;;;;;;8.38;4.15;;;16.30;69.20;;;;;;4721408;30;20366;-78
2022/10/20 12:51:39;;;;;;;11.73;4.20;;;16.30;69.20;;;;;;4719740;30;20064;-78
2022/10/20 12:54:33;;;;;;;9.98;6.03;;;16.30;69.10;;;;;;4705269;30;20053;-77
2022/10/20 12:57:03;;;;;;;11.88;6.22;;;16.20;68.80;;;;;;4720318;30;20061;-78
2022/10/20 12:59:29;;;;;;;19.67;7.60;;;16.20;68.70;;;;;;4719606;30;20057;-79
2022/10/20 13:02:10;;;;;;;9.55;6.43;;;16.20;68.70;;;;;;4719819;30;20064;-80
2022/10/20 13:04:59;;;;;;;8.80;6.43;;;16.20;68.60;;;;;;4720025;30;20128;-80
2022/10/20 13:07:51;;;;;;;9.43;6.45;;;16.20;68.70;;;;;;4718835;30;20111;-79
2022/10/20 13:10:26;;;;;;;10.85;5.68;;;16.20;68.90;;;;;;4719460;30;20074;-80
2022/10/20 13:13:11;;;;;;;16.50;5.68;;;16.20;69.20;;;;;;4720130;30;20353;-81
2022/10/20 13:15:46;;;;;;;13.27;5.78;;;16.20;69.80;;;;;;4700958;30;20548;-81
2022/10/20 13:18:12;;;;;;;18.95;5.75;;;16.30;70.20;;;;;;4719834;30;20057;-78
2022/10/20 13:21:15;;;;;;;26.35;6.13;;;16.30;70.40;;;;;;4705004;30;20049;-78
2022/10/20 13:24:08;;;;;;;14.65;4.53;;;16.40;70.90;;;;;;4720343;30;20470;-78
2022/10/20 13:26:45;;;;;;;19.08;4.80;;;16.50;71.10;;;;;;4718974;30;20053;-79
2022/10/20 13:29:31;;;;;;;21.17;4.57;;;16.60;70.80;;;;;;4720142;30;20057;-77
2022/10/20 13:32:25;;;;;;;19.45;4.55;;;16.80;70.80;;;;;;4719015;30;20119;-80
2022/10/20 13:35:01;;;;;;;16.75;4.55;;;16.80;70.40;;;;;;4719530;30;20055;-79
2022/10/20 13:37:49;;;;;;;20.60;4.32;;;16.90;70.20;;;;;;4719517;30;20044;-81
2022/10/20 13:40:23;;;;;;;20.20;3.95;;;17.00;70.20;;;;;;4719597;30;20057;-81
2022/10/20 13:43:22;;;;;;;21.13;4.70;;;17.00;70.20;;;;;;4719686;30;20409;-77
2022/10/20 13:45:58;;;;;;;17.95;4.07;;;17.10;70.40;;;;;;4719579;30;20528;-77
2022/10/20 13:48:52;;;;;;;18.27;3.88;;;17.20;70.20;;;;;;4719525;30;20107;-80
2022/10/20 13:51:24;;;;;;;18.73;4.45;;;17.30;70.50;;;;;;4719665;30;20362;-79
2022/10/20 13:53:54;;;;;;;17.23;5.10;;;17.30;70.10;;;;;;4719459;30;20053;-81
2022/10/20 13:56:30;;;;;;;15.65;4.82;;;17.30;69.90;;;;;;4719489;30;20056;-79
2022/10/20 13:59:01;;;;;;;18.00;4.68;;;17.30;69.80;;;;;;4715490;30;20103;-81
2022/10/20 14:01:30;;;;;;;16.90;5.05;;;17.30;69.80;;;;;;4714701;30;20409;-79
2022/10/20 14:03:56;;;;;;;12.25;4.50;;;17.40;69.90;;;;;;4717801;30;20081;-79
2022/10/20 14:06:31;;;;;;;14.65;4.70;;;17.30;70.10;;;;;;4717047;30;20370;-80
2022/10/20 14:09:07;;;;;;;20.50;5.18;;;17.30;70.40;;;;;;4703181;30;20129;-79
2022/10/20 14:11:34;;;;;;;15.52;4.00;;;17.20;70.60;;;;;;4718409;30;20057;-81
2022/10/20 14:14:01;;;;;;;13.65;4.60;;;17.30;71.00;;;;;;4719031;30;20485;-78
2022/10/20 14:16:30;;;;;;;13.63;4.75;;;17.30;71.20;;;;;;4719272;30;20065;-80
2022/10/20 14:19:05;;;;;;;10.20;3.92;;;17.20;71.30;;;;;;4719055;30;20057;-78
2022/10/20 14:21:43;;;;;;;18.50;4.95;;;17.20;70.50;;;;;;4718993;30;20064;-79
2022/10/20 14:24:15;;;;;;;14.65;5.05;;;17.10;70.70;;;;;;4719463;30;20119;-78
2022/10/20 14:26:44;;;;;;;17.70;5.20;;;17.10;71.10;;;;;;4703325;30;20454;-80
2022/10/20 14:29:13;;;;;;;10.23;4.70;;;17.00;71.20;;;;;;4719024;30;20053;-79
2022/10/20 14:31:43;;;;;;;12.23;4.22;;;17.00;71.20;;;;;;4719316;30;20141;-81
2022/10/20 14:34:24;;;;;;;10.68;3.88;;;17.00;71.30;;;;;;4718828;30;20138;-79
2022/10/20 14:36:52;;;;;;;12.50;4.25;;;17.00;71.30;;;;;;4718977;30;20148;-79
2022/10/20 14:39:32;;;;;;;11.90;4.20;;;17.00;71.20;;;;;;4716913;30;20056;-80
2022/10/20 14:42:00;;;;;;;14.52;5.75;;;17.00;71.20;;;;;;4717799;30;20076;-79
2022/10/20 14:44:27;;;;;;;11.30;7.10;;;16.90;71.20;;;;;;4719332;30;20373;-78
2022/10/20 14:46:56;;;;;;;10.70;7.13;;;16.90;71.20;;;;;;4718109;30;20071;-76
2022/10/20 14:49:36;;;;;;;11.65;7.85;;;16.90;71.30;;;;;;4718445;30;20085;-75
2022/10/20 14:52:18;;;;;;;11.48;8.48;;;16.90;71.10;;;;;;4719523;30;20358;-81
2022/10/20 14:54:46;;;;;;;10.98;7.47;;;16.90;71.20;;;;;;4718314;30;20100;-79
2022/10/20 14:57:11;;;;;;;10.18;7.25;;;16.80;71.20;;;;;;4718158;30;20049;-79
2022/10/20 15:00:03;;;;;;;12.52;6.72;;;16.80;71.30;;;;;;4703625;30;20457;-79
2022/10/20 15:02:38;;;;;;;11.20;6.65;;;16.80;71.30;;;;;;4717934;30;20327;-79
2022/10/20 15:05:29;;;;;;;11.35;6.65;;;16.80;71.50;;;;;;4718654;30;20092;-80
2022/10/20 15:07:56;;;;;;;10.35;6.40;;;16.70;71.80;;;;;;4703094;30;20482;-80
2022/10/20 15:10:26;;;;;;;9.25;7.22;;;16.70;71.80;;;;;;4718396;30;20128;-79
2022/10/20 15:12:55;;;;;;;10.65;7.60;;;16.70;71.90;;;;;;4717489;30;20049;-78
2022/10/20 15:15:28;;;;;;;10.98;7.72;;;16.70;72.00;;;;;;4703331;30;20355;-78
2022/10/20 15:18:05;;;;;;;9.93;7.88;;;16.70;72.10;;;;;;4718003;30;20068;-78
2022/10/20 15:20:37;;;;;;;9.00;7.88;;;16.60;72.20;;;;;;4717790;30;20128;-79
2022/10/20 15:23:16;;;;;;;10.13;8.50;;;16.60;72.30;;;;;;4718545;30;20135;-81
2022/10/20 15:25:58;;;;;;;9.90;8.90;;;16.60;72.40;;;;;;4717561;30;20362;-77
2022/10/20 15:28:40;;;;;;;9.55;8.32;;;16.60;72.60;;;;;;4718970;30;20406;-77
2022/10/20 15:31:28;;;;;;;9.68;8.65;;;16.60;72.60;;;;;;4718487;30;20060;-76
2022/10/20 15:34:03;;;;;;;12.73;8.25;;;16.50;72.80;;;;;;4720652;30;20484;-77
2022/10/20 15:36:35;;;;;;;11.40;7.90;;;16.50;72.90;;;;;;4721466;30;20085;-78
2022/10/20 15:39:02;;;;;;;9.85;7.70;;;16.50;72.90;;;;;;4720511;30;20533;-78
2022/10/20 15:41:30;;;;;;;9.93;7.18;;;16.50;73.00;;;;;;4705709;30;20060;-80
2022/10/20 15:44:06;;;;;;;11.52;7.22;;;16.50;73.10;;;;;;4720454;30;20059;-78
2022/10/20 15:46:32;;;;;;;8.63;6.90;;;16.50;73.20;;;;;;4720490;30;20049;-76
2022/10/20 15:48:57;;;;;;;9.50;6.97;;;16.50;73.20;;;;;;4721556;30;20056;-74
2022/10/20 15:51:31;;;;;;;10.52;6.57;;;16.50;73.20;;;;;;4720621;30;20049;-79
2022/10/20 15:53:57;;;;;;;10.15;6.95;;;16.40;73.30;;;;;;4721758;30;20056;-78
2022/10/20 15:56:23;;;;;;;11.50;6.75;;;16.40;73.40;;;;;;4706218;30;20045;-77
2022/10/20 15:59:10;;;;;;;13.55;6.20;;;16.50;73.60;;;;;;4719968;30;20063;-83
2022/10/20 16:04:52;;;;;;;10.73;5.93;;;16.50;73.80;;;;;;4720715;30;20052;-83
2022/10/20 16:07:21;;;;;;;8.52;5.40;;;16.40;73.80;;;;;;4719580;30;20431;-83
2022/10/20 16:09:50;;;;;;;9.70;5.65;;;16.50;73.90;;;;;;4717520;30;20129;-81
2022/10/20 16:12:15;;;;;;;10.32;6.13;;;16.40;73.90;;;;;;4719890;30;20053;-81
2022/10/20 16:14:41;;;;;;;11.50;5.85;;;16.50;74.10;;;;;;4720182;30;20425;-81
2022/10/20 16:17:10;;;;;;;9.15;5.30;;;16.50;74.30;;;;;;4720184;30;20366;-81
2022/10/20 16:19:35;;;;;;;12.70;6.55;;;16.40;74.80;;;;;;4719740;30;20049;-80
2022/10/20 16:22:04;;;;;;;17.40;5.55;;;16.50;74.90;;;;;;4706031;30;20140;-81
2022/10/20 16:24:32;;;;;;;14.35;5.40;;;16.50;75.30;;;;;;4719568;30;20060;-82
2022/10/20 16:26:58;;;;;;;18.17;5.53;;;16.60;75.40;;;;;;4704869;30;20055;-79
2022/10/20 16:29:23;;;;;;;15.48;5.07;;;16.50;75.40;;;;;;4719619;30;20041;-80
2022/10/20 16:31:49;;;;;;;15.50;5.90;;;16.50;75.90;;;;;;4720439;30;20053;-77
2022/10/20 16:34:15;;;;;;;13.45;5.43;;;16.60;76.00;;;;;;4720705;30;20466;-77
2022/10/20 16:36:41;;;;;;;11.88;4.53;;;16.60;76.20;;;;;;4719514;30;20442;-79
2022/10/20 16:39:07;;;;;;;15.07;4.82;;;16.60;76.40;;;;;;4720446;30;20129;-81
2022/10/20 16:41:33;;;;;;;11.25;4.88;;;16.70;76.40;;;;;;4719649;30;20089;-84
2022/10/20 16:43:59;;;;;;;11.15;5.30;;;16.70;76.90;;;;;;4704364;30;20513;-78
2022/10/20 16:46:27;;;;;;;14.52;7.78;;;16.70;77.70;;;;;;4720622;30;20132;-80
2022/10/20 16:48:55;;;;;;;11.68;6.38;;;16.80;80.40;;;;;;4719267;30;20068;-81
2022/10/20 16:51:24;;;;;;;14.98;5.32;;;16.80;80.60;;;;;;4719830;30;20045;-79
2022/10/20 16:57:39;;;;;;;17.00;5.20;;;16.90;79.50;;;;;;4720154;30;20427;-82
2022/10/20 17:00:07;;;;;;;14.05;4.90;;;16.90;79.30;;;;;;4720295;30;20362;-79
2022/10/20 17:02:36;;;;;;;17.92;5.10;;;16.90;79.40;;;;;;4719439;30;20045;-82
2022/10/20 17:05:01;;;;;;;8.25;4.00;;;17.00;79.90;;;;;;4690221;30;20481;-82
2022/10/20 17:07:27;;;;;;;10.15;3.80;;;17.00;79.50;;;;;;4720531;30;20040;-82
2022/10/20 17:09:53;;;;;;;10.60;4.05;;;17.00;79.20;;;;;;4718777;30;20063;-81
2022/10/20 17:12:18;;;;;;;16.45;4.60;;;17.00;79.20;;;;;;4718983;30;20060;-80
2022/10/20 17:14:44;;;;;;;15.25;5.00;;;17.00;79.30;;;;;;4689995;30;20044;-80
2022/10/20 17:17:10;;;;;;;21.48;4.20;;;17.00;79.20;;;;;;4719029;30;20445;-81
2022/10/20 17:19:36;;;;;;;18.20;4.72;;;17.00;79.40;;;;;;4720060;30;20045;-80
2022/10/20 17:22:01;;;;;;;13.05;4.25;;;17.00;79.50;;;;;;4718772;30;20060;-79
2022/10/20 17:24:27;;;;;;;12.30;4.28;;;17.00;79.40;;;;;;4719057;30;20057;-83
2022/10/20 17:26:53;;;;;;;13.93;4.50;;;17.00;78.70;;;;;;4704481;30;20049;-81
2022/10/20 17:29:19;;;;;;;17.85;4.57;;;17.00;78.60;;;;;;4719311;30;20049;-81
2022/10/20 17:31:45;;;;;;;12.30;4.35;;;17.00;78.60;;;;;;4719343;30;20374;-84
2022/10/20 17:34:11;;;;;;;10.80;3.50;;;17.00;78.50;;;;;;4718684;30;20122;-81
2022/10/20 17:36:36;;;;;;;10.80;3.83;;;16.90;78.40;;;;;;4719200;30;20124;-81
2022/10/20 17:39:07;;;;;;;11.52;3.97;;;16.90;78.30;;;;;;4719553;30;20091;-82
2022/10/20 17:41:33;;;;;;;8.57;4.03;;;16.90;78.20;;;;;;4704253;30;20057;-82
2022/10/20 17:44:01;;;;;;;8.60;3.60;;;16.90;78.10;;;;;;4719188;30;20112;-83
2022/10/20 17:46:27;;;;;;;11.15;4.22;;;16.90;78.00;;;;;;4704118;30;20045;-82
2022/10/20 17:48:53;;;;;;;9.77;3.70;;;16.80;77.90;;;;;;4718752;30;20056;-84
2022/10/20 17:51:21;;;;;;;7.57;3.80;;;16.80;77.80;;;;;;4704569;30;20045;-83
2022/10/20 17:53:48;;;;;;;7.75;3.65;;;16.80;77.70;;;;;;4718999;30;20037;-82
2022/10/20 17:56:18;;;;;;;8.75;3.92;;;16.80;77.60;;;;;;4718281;30;20485;-85
2022/10/20 17:58:45;;;;;;;9.27;3.65;;;16.80;77.60;;;;;;4718734;30;20053;-81
2022/10/20 18:01:20;;;;;;;8.82;4.15;;;16.80;77.50;;;;;;4718250;30;20052;-82
2022/10/20 18:03:51;;;;;;;8.02;3.70;;;16.80;77.50;;;;;;4704003;30;20053;-82
2022/10/20 18:06:19;;;;;;;8.60;3.75;;;16.80;77.40;;;;;;4718514;30;20041;-82
2022/10/20 18:08:46;;;;;;;8.50;3.20;;;16.70;77.30;;;;;;4704091;30;20045;-82
2022/10/20 18:11:15;;;;;;;8.32;3.38;;;16.70;77.30;;;;;;4704058;30;20055;-82
2022/10/20 18:13:40;;;;;;;6.18;3.75;;;16.70;76.80;;;;;;4717827;30;20374;-83
2022/10/20 18:16:08;;;;;;;7.65;3.88;;;16.80;77.00;;;;;;4717971;30;20041;-83
2022/10/20 18:18:34;;;;;;;9.18;3.60;;;16.80;77.00;;;;;;4703712;30;20047;-82
2022/10/20 18:21:00;;;;;;;5.78;3.63;;;16.80;76.90;;;;;;4718441;30;20357;-79
2022/10/20 18:23:28;;;;;;;6.32;3.72;;;16.80;76.90;;;;;;4703674;30;20118;-81
2022/10/20 18:26:08;;;;;;;8.93;3.60;;;16.80;76.60;;;;;;4703859;30;20092;-79
2022/10/20 18:28:35;;;;;;;8.48;4.05;;;16.80;76.40;;;;;;4718609;30;20377;-80
2022/10/20 18:31:25;;;;;;;5.70;3.60;;;16.80;76.30;;;;;;4718109;30;20053;-81
2022/10/20 18:33:58;;;;;;;5.68;4.00;;;16.90;76.30;;;;;;4684708;30;20508;-80
2022/10/20 18:36:25;;;;;;;6.15;3.60;;;16.90;76.30;;;;;;4718373;30;20140;-80
2022/10/20 18:38:52;;;;;;;7.28;3.65;;;16.90;76.30;;;;;;4703160;30;20127;-80
2022/10/20 18:41:36;;;;;;;4.78;3.42;;;16.90;76.40;;;;;;4717562;30;20122;-81
2022/10/20 18:44:09;;;;;;;9.55;3.55;;;16.90;76.50;;;;;;4703631;30;20061;-82
2022/10/20 18:46:35;;;;;;;10.37;4.17;;;16.90;76.50;;;;;;4718171;30;20116;-81
2022/10/20 18:49:03;;;;;;;8.73;3.80;;;16.90;76.60;;;;;;4717662;30;20334;-81
2022/10/20 18:51:30;;;;;;;15.40;4.05;;;16.90;76.80;;;;;;4700733;30;20162;-82
2022/10/20 18:53:57;;;;;;;8.80;4.00;;;16.90;76.40;;;;;;4702851;30;20057;-80
2022/10/20 18:56:25;;;;;;;8.02;3.67;;;16.90;76.80;;;;;;4718176;30;20049;-82
2022/10/20 18:58:59;;;;;;;9.18;4.05;;;16.90;76.80;;;;;;4717250;30;20053;-81
2022/10/20 19:01:31;;;;;;;7.22;4.18;;;16.90;76.70;;;;;;4703613;30;20049;-81
2022/10/20 19:03:58;;;;;;;6.30;3.63;;;17.00;76.70;;;;;;4703857;30;20083;-80
2022/10/20 19:06:32;;;;;;;6.47;3.85;;;17.00;76.70;;;;;;4719678;30;20064;-82
2022/10/20 19:09:00;;;;;;;7.15;4.22;;;17.00;76.70;;;;;;4720980;30;20187;-81
2022/10/20 19:11:29;;;;;;;9.00;3.92;;;17.00;76.60;;;;;;4721028;30;20501;-81
2022/10/20 19:13:55;;;;;;;6.65;4.30;;;17.00;76.60;;;;;;4721258;30;20084;-81
2022/10/20 19:16:24;;;;;;;6.60;3.60;;;17.00;76.60;;;;;;4721952;30;20088;-82
2022/10/20 19:18:52;;;;;;;7.15;4.10;;;17.00;76.60;;;;;;4721226;30;20064;-82
2022/10/20 19:21:19;;;;;;;7.03;4.30;;;17.00;76.60;;;;;;4707211;30;20057;-81
2022/10/20 19:23:48;;;;;;;4.97;3.92;;;17.00;76.60;;;;;;4706713;30;20057;-81
2022/10/20 19:26:22;;;;;;;7.43;4.03;;;17.00;76.60;;;;;;4720843;30;20065;-81
2022/10/20 19:28:52;;;;;;;9.85;4.53;;;17.00;76.50;;;;;;4720386;30;20045;-84
2022/10/20 19:31:22;;;;;;;6.18;3.92;;;17.00;76.40;;;;;;4722312;30;20049;-82
2022/10/20 19:33:52;;;;;;;4.68;3.42;;;17.00;76.50;;;;;;4706010;30;20049;-82
2022/10/20 19:36:19;;;;;;;8.27;4.32;;;17.00;76.50;;;;;;4722032;30;20084;-80
2022/10/20 19:38:45;;;;;;;5.57;4.35;;;17.00;76.50;;;;;;4720871;30;20074;-80
2022/10/20 19:41:11;;;;;;;8.13;4.20;;;17.00;76.40;;;;;;4727704;30;20060;-82
2022/10/20 19:43:37;;;;;;;5.70;3.67;;;16.90;76.30;;;;;;4738523;30;20457;-82
2022/10/20 19:46:05;;;;;;;6.07;4.32;;;16.90;76.30;;;;;;4727978;30;20401;-80
2022/10/20 19:48:31;;;;;;;6.03;4.03;;;16.90;76.40;;;;;;4706330;30;20132;-81
2022/10/20 19:50:57;;;;;;;5.50;3.35;;;16.90;76.60;;;;;;4722281;30;20144;-81
2022/10/20 19:53:23;;;;;;;7.18;4.80;;;16.90;76.70;;;;;;4721421;30;20428;-82
2022/10/20 19:55:49;;;;;;;7.10;4.68;;;16.90;76.80;;;;;;4721970;30;20049;-82